createdAt,value
2018-10-05T00:00:39.653Z,5.28
2018-10-05T00:01:39.626Z,5.31
2018-10-05T00:02:39.496Z,5.29
2018-10-05T00:03:39.434Z,5.24
2018-10-05T00:05:00.316Z,5.23
2018-10-05T00:05:39.345Z,5.16
2018-10-05T00:06:39.167Z,5.20
2018-10-05T00:07:39.154Z,5.24
2018-10-05T00:08:39.010Z,5.23
2018-10-05T00:09:38.961Z,5.26
2018-10-05T00:10:59.823Z,5.20
2018-10-05T00:11:38.875Z,5.21
2018-10-05T00:12:38.716Z,5.26
2018-10-05T00:13:38.689Z,5.18
2018-10-05T00:14:38.525Z,5.24
2018-10-05T00:15:38.487Z,5.21
2018-10-05T00:16:59.342Z,5.14
2018-10-05T00:17:38.400Z,5.24
2018-10-05T00:18:38.199Z,5.26
2018-10-05T00:19:38.208Z,5.23
2018-10-05T00:20:38.099Z,5.20
2018-10-05T00:21:38.015Z,5.24
2018-10-05T00:22:58.858Z,5.26
2018-10-05T00:23:37.826Z,5.31
2018-10-05T00:24:37.718Z,5.26
2018-10-05T00:25:37.733Z,5.28
2018-10-05T00:26:37.555Z,5.24
2018-10-05T00:27:37.542Z,5.21
2018-10-05T00:28:58.375Z,5.26
2018-10-05T00:29:37.350Z,5.11
2018-10-05T00:30:37.231Z,5.13
2018-10-05T00:31:37.263Z,5.00
2018-10-05T00:32:37.070Z,4.95
2018-10-05T00:33:37.070Z,4.83
2018-10-05T00:34:57.889Z,4.80
2018-10-05T00:35:36.880Z,4.76
2018-10-05T00:36:36.744Z,4.66
2018-10-05T00:37:36.687Z,4.72
2018-10-05T00:38:36.583Z,4.73
2018-10-05T00:39:36.602Z,4.66
2018-10-05T00:40:57.406Z,4.56
2018-10-05T00:41:36.411Z,4.59
2018-10-05T00:42:36.262Z,4.68
2018-10-05T00:43:36.218Z,4.55
2018-10-05T00:44:36.097Z,4.61
2018-10-05T00:45:36.128Z,4.62
2018-10-05T00:46:56.920Z,4.64
2018-10-05T00:47:35.935Z,4.64
2018-10-05T00:48:35.772Z,4.64
2018-10-05T00:49:35.743Z,4.66
2018-10-05T00:50:35.616Z,4.77
2018-10-05T00:51:35.553Z,4.72
2018-10-05T00:52:56.477Z,4.87
2018-10-05T00:53:35.551Z,4.84
2018-10-05T00:54:35.289Z,4.85
2018-10-05T00:55:35.274Z,4.80
2018-10-05T00:56:35.127Z,4.92
2018-10-05T00:57:35.081Z,4.98
2018-10-05T00:58:55.953Z,4.88
2018-10-05T00:59:34.993Z,4.92
2018-10-05T01:00:34.800Z,4.88
2018-10-05T01:01:34.852Z,4.79
2018-10-05T01:02:34.638Z,4.85
2018-10-05T01:03:34.614Z,4.77
2018-10-05T01:04:55.457Z,4.72
2018-10-05T01:05:34.419Z,4.74
2018-10-05T01:06:34.315Z,4.79
2018-10-05T01:07:34.326Z,4.73
2018-10-05T01:08:34.150Z,4.74
2018-10-05T01:09:34.136Z,4.84
2018-10-05T01:10:54.965Z,4.85
2018-10-05T01:11:33.997Z,4.85
2018-10-05T01:12:33.828Z,4.91
2018-10-05T01:13:33.860Z,4.91
2018-10-05T01:14:33.666Z,4.83
2018-10-05T01:15:33.664Z,4.95
2018-10-05T01:16:54.481Z,4.93
2018-10-05T01:17:33.434Z,5.00
2018-10-05T01:18:33.338Z,4.92
2018-10-05T01:19:33.287Z,5.00
2018-10-05T01:20:33.178Z,4.91
2018-10-05T01:21:33.198Z,4.93
2018-10-05T01:22:53.994Z,4.98
2018-10-05T01:23:33.000Z,4.99
2018-10-05T01:24:32.861Z,4.91
2018-10-05T01:25:32.810Z,4.93
2018-10-05T01:26:32.701Z,4.88
2018-10-05T01:27:32.722Z,4.83
2018-10-05T01:28:53.509Z,4.83
2018-10-05T01:29:32.452Z,4.80
2018-10-05T01:30:32.370Z,4.85
2018-10-05T01:31:32.343Z,4.87
2018-10-05T01:32:32.203Z,4.85
2018-10-05T01:33:32.145Z,4.87
2018-10-05T01:34:53.020Z,4.80
2018-10-05T01:35:32.056Z,4.83
2018-10-05T01:36:31.876Z,4.73
2018-10-05T01:37:31.871Z,4.73
2018-10-05T01:38:31.716Z,4.66
2018-10-05T01:39:31.672Z,4.68
2018-10-05T01:40:52.533Z,4.68
2018-10-05T01:41:31.583Z,4.64
2018-10-05T01:42:31.391Z,4.64
2018-10-05T01:43:31.399Z,4.64
2018-10-05T01:44:31.231Z,4.69
2018-10-05T01:45:31.202Z,4.64
2018-10-05T01:46:52.054Z,4.55
2018-10-05T01:47:31.012Z,4.56
2018-10-05T01:48:31.698Z,4.52
2018-10-05T01:49:30.922Z,4.50
2018-10-05T01:50:30.742Z,4.48
2018-10-05T01:51:30.730Z,4.37
2018-10-05T01:52:51.559Z,4.38
2018-10-05T01:53:30.537Z,4.37
2018-10-05T01:54:30.424Z,4.38
2018-10-05T01:55:30.450Z,4.43
2018-10-05T01:56:30.254Z,4.41
2018-10-05T01:57:30.256Z,4.43
2018-10-05T01:58:51.068Z,4.43
2018-10-05T01:59:30.073Z,4.38
2018-10-05T02:00:29.931Z,4.26
2018-10-05T02:01:29.877Z,4.22
2018-10-05T02:02:29.770Z,4.23
2018-10-05T02:03:29.784Z,4.22
2018-10-05T02:04:50.584Z,4.30
2018-10-05T02:05:29.602Z,4.34
2018-10-05T02:06:29.441Z,4.37
2018-10-05T02:07:29.401Z,4.44
2018-10-05T02:08:29.276Z,4.46
2018-10-05T02:09:29.212Z,4.46
2018-10-05T02:10:50.095Z,4.32
2018-10-05T02:11:33.834Z,4.32
2018-10-05T02:12:28.950Z,4.25
2018-10-05T02:13:28.932Z,4.20
2018-10-05T02:14:28.793Z,4.18
2018-10-05T02:15:28.740Z,4.28
2018-10-05T02:16:49.611Z,4.19
2018-10-05T02:17:28.553Z,4.25
2018-10-05T02:18:28.462Z,4.18
2018-10-05T02:19:33.271Z,4.16
2018-10-05T02:20:28.303Z,4.16
2018-10-05T02:21:28.271Z,4.20
2018-10-05T02:22:49.121Z,4.19
2018-10-05T02:23:28.076Z,4.28
2018-10-05T02:24:27.976Z,4.18
2018-10-05T02:25:27.990Z,4.16
2018-10-05T02:26:27.813Z,4.23
2018-10-05T02:27:27.847Z,4.16
2018-10-05T02:28:48.631Z,4.16
2018-10-05T02:29:27.606Z,4.18
2018-10-05T02:30:27.500Z,4.19
2018-10-05T02:31:27.520Z,4.28
2018-10-05T02:32:27.327Z,4.28
2018-10-05T02:33:27.333Z,4.16
2018-10-05T02:34:48.141Z,4.05
2018-10-05T02:35:27.151Z,4.04
2018-10-05T02:36:26.999Z,4.01
2018-10-05T02:37:26.938Z,4.05
2018-10-05T02:38:26.839Z,3.97
2018-10-05T02:39:26.851Z,4.00
2018-10-05T02:40:47.651Z,4.02
2018-10-05T02:41:26.664Z,4.05
2018-10-05T02:42:26.515Z,4.05
2018-10-05T02:43:26.474Z,4.01
2018-10-05T02:44:26.345Z,4.02
2018-10-05T02:45:26.380Z,4.07
2018-10-05T02:46:47.162Z,4.05
2018-10-05T02:47:26.189Z,4.07
2018-10-05T02:48:26.024Z,4.12
2018-10-05T02:49:25.997Z,4.15
2018-10-05T02:50:25.860Z,4.12
2018-10-05T02:51:25.802Z,4.16
2018-10-05T02:52:46.674Z,4.25
2018-10-05T02:53:25.714Z,4.12
2018-10-05T02:54:25.528Z,4.20
2018-10-05T02:55:25.537Z,4.20
2018-10-05T02:56:25.368Z,4.11
2018-10-05T02:57:25.337Z,4.15
2018-10-05T02:58:46.186Z,3.98
2018-10-05T02:59:25.141Z,3.87
2018-10-05T03:00:25.044Z,3.87
2018-10-05T03:01:25.053Z,3.75
2018-10-05T03:02:24.878Z,3.79
2018-10-05T03:03:24.860Z,3.69
2018-10-05T03:04:45.694Z,3.74
2018-10-05T03:05:24.670Z,3.75
2018-10-05T03:06:24.551Z,3.75
2018-10-05T03:07:24.580Z,3.82
2018-10-05T03:08:24.390Z,3.93
2018-10-05T03:09:24.387Z,3.84
2018-10-05T03:10:45.202Z,3.89
2018-10-05T03:11:24.196Z,3.87
2018-10-05T03:12:24.064Z,3.82
2018-10-05T03:13:24.007Z,3.83
2018-10-05T03:14:23.898Z,3.84
2018-10-05T03:15:23.918Z,3.82
2018-10-05T03:16:44.717Z,3.93
2018-10-05T03:17:23.729Z,3.87
2018-10-05T03:18:23.575Z,3.90
2018-10-05T03:19:23.535Z,3.90
2018-10-05T03:20:23.413Z,3.97
2018-10-05T03:21:23.341Z,3.92
2018-10-05T03:22:44.225Z,3.84
2018-10-05T03:23:23.253Z,3.86
2018-10-05T03:24:23.085Z,3.74
2018-10-05T03:25:23.065Z,3.77
2018-10-05T03:26:22.923Z,3.71
2018-10-05T03:27:22.869Z,3.69
2018-10-05T03:28:43.734Z,3.79
2018-10-05T03:29:22.782Z,3.77
2018-10-05T03:30:22.594Z,3.75
2018-10-05T03:31:22.590Z,3.84
2018-10-05T03:32:22.428Z,3.77
2018-10-05T03:33:22.398Z,3.79
2018-10-05T03:34:43.241Z,3.75
2018-10-05T03:35:22.214Z,3.71
2018-10-05T03:36:22.113Z,3.68
2018-10-05T03:37:22.116Z,3.74
2018-10-05T03:38:21.938Z,3.68
2018-10-05T03:39:21.927Z,3.71
2018-10-05T03:40:42.752Z,3.82
2018-10-05T03:41:21.733Z,3.82
2018-10-05T03:42:21.608Z,3.80
2018-10-05T03:43:21.643Z,3.86
2018-10-05T03:44:21.444Z,3.86
2018-10-05T03:45:21.453Z,3.74
2018-10-05T03:46:42.265Z,3.71
2018-10-05T03:47:21.262Z,3.65
2018-10-05T03:48:21.118Z,3.48
2018-10-05T03:49:21.066Z,3.47
2018-10-05T03:50:20.956Z,3.29
2018-10-05T03:51:20.880Z,3.19
2018-10-05T03:52:41.770Z,3.13
2018-10-05T03:53:20.792Z,3.22
2018-10-05T03:54:20.631Z,3.24
2018-10-05T03:55:20.597Z,3.13
2018-10-05T03:56:20.468Z,3.09
2018-10-05T03:57:20.410Z,3.07
2018-10-05T03:58:41.280Z,3.06
2018-10-05T03:59:20.231Z,3.03
2018-10-05T04:00:20.139Z,3.10
2018-10-05T04:01:20.066Z,3.16
2018-10-05T04:02:19.976Z,3.28
2018-10-05T04:03:19.901Z,3.19
2018-10-05T04:04:40.792Z,3.25
2018-10-05T04:05:19.741Z,3.32
2018-10-05T04:06:19.646Z,3.34
2018-10-05T04:07:19.655Z,3.46
2018-10-05T04:08:19.483Z,3.43
2018-10-05T04:09:19.468Z,3.56
2018-10-05T04:10:40.297Z,3.59
2018-10-05T04:11:19.275Z,3.51
2018-10-05T04:12:19.158Z,3.51
2018-10-05T04:13:19.181Z,3.53
2018-10-05T04:14:18.988Z,3.48
2018-10-05T04:15:18.990Z,3.41
2018-10-05T04:16:39.809Z,3.43
2018-10-05T04:17:18.803Z,3.41
2018-10-05T04:18:18.662Z,3.46
2018-10-05T04:19:18.611Z,3.51
2018-10-05T04:20:18.497Z,3.46
2018-10-05T04:21:18.423Z,3.50
2018-10-05T04:22:39.312Z,3.47
2018-10-05T04:23:18.262Z,3.41
2018-10-05T04:24:18.176Z,3.35
2018-10-05T04:25:18.109Z,3.34
2018-10-05T04:26:18.011Z,3.32
2018-10-05T04:27:18.023Z,3.31
2018-10-05T04:28:38.826Z,3.34
2018-10-05T04:29:17.854Z,3.35
2018-10-05T04:30:17.679Z,3.34
2018-10-05T04:31:17.667Z,3.37
2018-10-05T04:32:17.516Z,3.39
2018-10-05T04:33:17.474Z,3.43
2018-10-05T04:34:38.328Z,3.41
2018-10-05T04:35:17.386Z,3.46
2018-10-05T04:36:17.187Z,3.39
2018-10-05T04:37:17.191Z,3.46
2018-10-05T04:38:17.023Z,3.48
2018-10-05T04:39:17.000Z,3.48
2018-10-05T04:40:37.839Z,3.53
2018-10-05T04:41:16.876Z,3.51
2018-10-05T04:42:16.697Z,3.53
2018-10-05T04:43:16.722Z,3.54
2018-10-05T04:44:16.531Z,3.37
2018-10-05T04:45:16.531Z,3.48
2018-10-05T04:46:37.347Z,3.41
2018-10-05T04:47:16.343Z,3.32
2018-10-05T04:48:16.203Z,3.31
2018-10-05T04:49:16.145Z,3.34
2018-10-05T04:50:16.040Z,3.32
2018-10-05T04:51:15.963Z,3.34
2018-10-05T04:52:36.856Z,3.31
2018-10-05T04:53:15.815Z,3.29
2018-10-05T04:54:15.710Z,3.31
2018-10-05T04:55:15.635Z,3.31
2018-10-05T04:56:15.546Z,3.34
2018-10-05T04:57:15.475Z,3.25
2018-10-05T04:58:36.369Z,3.29
2018-10-05T04:59:15.310Z,3.28
2018-10-05T05:00:15.218Z,3.37
2018-10-05T05:01:15.145Z,3.28
2018-10-05T05:02:15.053Z,3.35
2018-10-05T05:03:14.983Z,3.25
2018-10-05T05:04:35.873Z,3.29
2018-10-05T05:05:14.819Z,3.27
2018-10-05T05:06:14.733Z,3.24
2018-10-05T05:07:14.652Z,3.13
2018-10-05T05:08:14.563Z,2.96
2018-10-05T05:09:14.492Z,2.99
2018-10-05T05:10:35.378Z,3.06
2018-10-05T05:11:14.325Z,2.93
2018-10-05T05:12:14.341Z,3.04
2018-10-05T05:13:14.161Z,2.96
2018-10-05T05:14:14.074Z,3.04
2018-10-05T05:15:13.996Z,3.01
2018-10-05T05:16:34.884Z,2.95
2018-10-05T05:17:13.837Z,3.01
2018-10-05T05:18:13.750Z,3.01
2018-10-05T05:19:13.659Z,3.11
2018-10-05T05:20:13.589Z,3.01
2018-10-05T05:21:13.500Z,2.98
2018-10-05T05:22:34.409Z,3.01
2018-10-05T05:23:13.333Z,2.96
2018-10-05T05:24:13.257Z,2.99
2018-10-05T05:25:13.169Z,2.98
2018-10-05T05:26:13.092Z,3.04
2018-10-05T05:27:13.019Z,2.96
2018-10-05T05:28:33.910Z,3.13
2018-10-05T05:29:12.840Z,2.98
2018-10-05T05:30:12.761Z,3.01
2018-10-05T05:31:12.674Z,3.01
2018-10-05T05:32:12.603Z,3.06
2018-10-05T05:33:12.510Z,3.16
2018-10-05T05:34:33.428Z,3.11
2018-10-05T05:35:12.348Z,3.21
2018-10-05T05:36:12.270Z,3.13
2018-10-05T05:37:12.178Z,3.16
2018-10-05T05:38:12.111Z,3.17
2018-10-05T05:39:12.037Z,3.19
2018-10-05T05:40:32.924Z,3.22
2018-10-05T05:41:11.853Z,3.16
2018-10-05T05:42:11.778Z,3.11
2018-10-05T05:43:11.687Z,3.21
2018-10-05T05:44:11.699Z,3.13
2018-10-05T05:45:11.528Z,3.14
2018-10-05T05:46:32.424Z,3.06
2018-10-05T05:47:11.483Z,3.07
2018-10-05T05:48:11.282Z,3.01
2018-10-05T05:49:11.295Z,2.98
2018-10-05T05:50:11.119Z,2.89
2018-10-05T05:51:11.207Z,2.86
2018-10-05T05:52:31.927Z,2.73
2018-10-05T05:53:11.015Z,2.77
2018-10-05T05:54:10.853Z,2.74
2018-10-05T05:55:10.727Z,2.60
2018-10-05T05:56:10.625Z,2.74
2018-10-05T05:57:10.636Z,2.78
2018-10-05T05:58:32.265Z,2.86
2018-10-05T05:59:10.554Z,2.89
2018-10-05T06:00:10.289Z,3.04
2018-10-05T06:01:10.406Z,2.98
2018-10-05T06:02:10.126Z,2.96
2018-10-05T06:03:10.163Z,3.03
2018-10-05T06:04:30.943Z,3.13
2018-10-05T06:05:09.971Z,3.13
2018-10-05T06:06:09.796Z,3.28
2018-10-05T06:07:09.711Z,3.19
2018-10-05T06:08:09.815Z,3.32
2018-10-05T06:09:09.548Z,3.32
2018-10-05T06:10:30.588Z,3.39
2018-10-05T06:11:09.386Z,3.39
2018-10-05T06:12:09.302Z,3.39
2018-10-05T06:13:09.412Z,3.47
2018-10-05T06:14:09.139Z,3.46
2018-10-05T06:15:09.224Z,3.50
2018-10-05T06:16:30.017Z,3.51
2018-10-05T06:17:09.035Z,3.50
2018-10-05T06:18:08.813Z,3.56
2018-10-05T06:19:08.843Z,3.66
2018-10-05T06:20:08.648Z,3.65
2018-10-05T06:21:08.751Z,3.65
2018-10-05T06:22:29.629Z,3.69
2018-10-05T06:23:08.560Z,3.66
2018-10-05T06:24:08.317Z,3.66
2018-10-05T06:25:08.270Z,3.71
2018-10-05T06:26:08.156Z,3.74
2018-10-05T06:27:08.177Z,3.82
2018-10-05T06:28:28.972Z,3.89
2018-10-05T06:29:08.093Z,3.93
2018-10-05T06:30:07.820Z,3.97
2018-10-05T06:31:07.944Z,3.98
2018-10-05T06:32:07.660Z,4.01
2018-10-05T06:33:07.621Z,4.02
2018-10-05T06:34:28.604Z,4.16
2018-10-05T06:35:07.415Z,4.10
2018-10-05T06:36:07.529Z,4.11
2018-10-05T06:37:07.246Z,4.22
2018-10-05T06:38:07.269Z,4.23
2018-10-05T06:39:07.155Z,4.32
2018-10-05T06:40:28.034Z,4.34
2018-10-05T06:41:06.925Z,4.43
2018-10-05T06:42:06.937Z,4.48
2018-10-05T06:43:06.753Z,4.55
2018-10-05T06:44:06.763Z,4.54
2018-10-05T06:45:06.592Z,4.54
2018-10-05T06:46:27.562Z,4.74
2018-10-05T06:47:06.427Z,4.65
2018-10-05T06:48:06.376Z,4.74
2018-10-05T06:49:06.269Z,4.83
2018-10-05T06:50:06.205Z,4.79
2018-10-05T06:51:06.106Z,4.99
2018-10-05T06:52:27.008Z,5.05
2018-10-05T06:53:05.993Z,5.10
2018-10-05T06:54:05.859Z,5.20
2018-10-05T06:55:05.784Z,5.35
2018-10-05T06:56:05.694Z,5.44
2018-10-05T06:57:05.619Z,5.44
2018-10-05T06:58:26.507Z,5.59
2018-10-05T06:59:05.472Z,5.59
2018-10-05T07:00:05.368Z,5.57
2018-10-05T07:01:05.297Z,5.63
2018-10-05T07:02:05.205Z,5.72
2018-10-05T07:03:05.130Z,5.86
2018-10-05T07:04:26.021Z,5.83
2018-10-05T07:05:04.971Z,5.96
2018-10-05T07:06:04.876Z,6.06
2018-10-05T07:07:04.816Z,6.15
2018-10-05T07:08:04.757Z,6.24
2018-10-05T07:09:04.647Z,6.33
2018-10-05T07:10:25.533Z,6.39
2018-10-05T07:11:04.481Z,6.42
2018-10-05T07:12:04.391Z,6.54
2018-10-05T07:13:04.321Z,6.66
2018-10-05T07:14:04.228Z,6.70
2018-10-05T07:15:04.156Z,6.86
2018-10-05T07:16:25.050Z,6.94
2018-10-05T07:17:04.040Z,6.93
2018-10-05T07:18:03.907Z,7.11
2018-10-05T07:19:03.830Z,7.17
2018-10-05T07:20:03.743Z,7.30
2018-10-05T07:21:03.665Z,7.37
2018-10-05T07:22:24.593Z,7.42
2018-10-05T07:23:03.510Z,7.57
2018-10-05T07:24:03.425Z,7.72
2018-10-05T07:25:03.342Z,7.90
2018-10-05T07:26:03.253Z,8.11
2018-10-05T07:27:03.183Z,8.11
2018-10-05T07:28:24.127Z,8.32
2018-10-05T07:29:03.023Z,8.47
2018-10-05T07:30:02.930Z,8.43
2018-10-05T07:31:02.860Z,8.58
2018-10-05T07:32:02.777Z,8.69
2018-10-05T07:33:02.717Z,8.85
2018-10-05T07:34:23.593Z,9.00
2018-10-05T07:35:02.545Z,9.16
2018-10-05T07:36:02.459Z,9.13
2018-10-05T07:37:02.486Z,9.34
2018-10-05T07:38:02.291Z,9.53
2018-10-05T07:39:02.221Z,9.78
2018-10-05T07:40:23.109Z,9.86
2018-10-05T07:41:02.060Z,9.97
2018-10-05T07:42:01.970Z,10.06
2018-10-05T07:43:01.906Z,10.22
2018-10-05T07:44:01.820Z,10.51
2018-10-05T07:45:01.741Z,10.62
2018-10-05T07:46:22.637Z,10.80
2018-10-05T07:47:01.587Z,10.91
2018-10-05T07:48:01.494Z,11.13
2018-10-05T07:49:01.423Z,11.17
2018-10-05T07:50:01.337Z,11.35
2018-10-05T07:51:01.261Z,11.35
2018-10-05T07:52:22.158Z,11.46
2018-10-05T07:53:01.104Z,11.59
2018-10-05T07:54:01.018Z,11.75
2018-10-05T07:55:00.949Z,11.87
2018-10-05T07:56:00.862Z,11.94
2018-10-05T07:57:00.786Z,12.03
2018-10-05T07:58:21.681Z,12.16
2018-10-05T07:59:00.628Z,12.31
2018-10-05T08:00:00.543Z,12.51
2018-10-05T08:01:00.476Z,12.51
2018-10-05T08:02:00.383Z,12.59
2018-10-05T08:03:00.312Z,12.78
2018-10-05T08:04:21.208Z,12.91
2018-10-05T08:05:00.161Z,13.03
2018-10-05T08:06:00.080Z,13.18
2018-10-05T08:07:00.001Z,13.29
2018-10-05T08:07:59.912Z,13.44
2018-10-05T08:08:59.841Z,13.63
2018-10-05T08:10:20.743Z,13.59
2018-10-05T08:11:00.685Z,13.74
2018-10-05T08:11:59.600Z,13.83
2018-10-05T08:12:59.531Z,13.89
2018-10-05T08:13:59.450Z,14.05
2018-10-05T08:14:59.372Z,14.16
2018-10-05T08:16:20.272Z,14.29
2018-10-05T08:16:59.216Z,14.34
2018-10-05T08:17:59.130Z,14.38
2018-10-05T08:18:59.063Z,14.38
2018-10-05T08:19:58.985Z,14.53
2018-10-05T08:20:58.951Z,14.71
2018-10-05T08:22:19.804Z,14.90
2018-10-05T08:22:58.755Z,14.84
2018-10-05T08:23:58.666Z,14.94
2018-10-05T08:24:58.597Z,15.02
2018-10-05T08:25:58.509Z,15.03
2018-10-05T08:26:58.449Z,15.13
2018-10-05T08:28:19.336Z,15.12
2018-10-05T08:28:58.282Z,15.18
2018-10-05T08:29:58.200Z,15.13
2018-10-05T08:30:58.144Z,15.26
2018-10-05T08:31:58.065Z,15.38
2018-10-05T08:32:57.977Z,15.42
2018-10-05T08:34:18.887Z,15.63
2018-10-05T08:34:57.822Z,15.60
2018-10-05T08:35:57.738Z,15.75
2018-10-05T08:36:57.666Z,15.85
2018-10-05T08:37:57.583Z,15.81
2018-10-05T08:38:57.516Z,15.85
2018-10-05T08:40:18.491Z,15.81
2018-10-05T08:40:57.361Z,15.85
2018-10-05T08:41:57.273Z,15.88
2018-10-05T08:42:57.209Z,16.10
2018-10-05T08:43:57.127Z,16.10
2018-10-05T08:44:57.052Z,16.08
2018-10-05T08:46:17.951Z,16.12
2018-10-05T08:46:56.898Z,16.06
2018-10-05T08:47:56.820Z,15.94
2018-10-05T08:48:56.745Z,16.10
2018-10-05T08:49:56.661Z,16.01
2018-10-05T08:50:56.593Z,16.08
2018-10-05T08:52:17.528Z,16.10
2018-10-05T08:52:56.440Z,16.30
2018-10-05T08:53:56.360Z,16.38
2018-10-05T08:54:56.291Z,16.40
2018-10-05T08:55:56.205Z,16.53
2018-10-05T08:56:56.136Z,16.37
2018-10-05T08:58:17.035Z,16.38
2018-10-05T08:58:55.984Z,16.55
2018-10-05T08:59:55.927Z,16.56
2018-10-05T09:00:55.828Z,16.57
2018-10-05T09:01:55.754Z,16.63
2018-10-05T09:02:55.684Z,16.53
2018-10-05T09:04:16.581Z,16.55
2018-10-05T09:04:55.532Z,16.56
2018-10-05T09:05:55.528Z,16.60
2018-10-05T09:06:55.377Z,16.65
2018-10-05T09:07:55.293Z,16.67
2018-10-05T09:08:55.222Z,16.77
2018-10-05T09:10:16.129Z,16.80
2018-10-05T09:10:55.078Z,16.92
2018-10-05T09:11:54.991Z,16.96
2018-10-05T09:12:54.921Z,17.07
2018-10-05T09:13:54.841Z,17.15
2018-10-05T09:14:54.772Z,17.20
2018-10-05T09:16:15.667Z,17.29
2018-10-05T09:16:54.621Z,17.30
2018-10-05T09:17:54.539Z,17.28
2018-10-05T09:18:54.466Z,17.18
2018-10-05T09:19:54.386Z,17.26
2018-10-05T09:20:54.321Z,17.39
2018-10-05T09:22:15.220Z,17.39
2018-10-05T09:22:54.173Z,17.53
2018-10-05T09:23:54.088Z,17.54
2018-10-05T09:24:54.021Z,17.69
2018-10-05T09:25:53.933Z,17.73
2018-10-05T09:26:53.874Z,17.94
2018-10-05T09:28:14.764Z,17.98
2018-10-05T09:28:53.723Z,17.98
2018-10-05T09:29:53.634Z,18.02
2018-10-05T09:30:53.570Z,18.06
2018-10-05T09:31:53.485Z,17.94
2018-10-05T09:32:53.488Z,18.19
2018-10-05T09:34:14.319Z,18.09
2018-10-05T09:34:53.299Z,18.25
2018-10-05T09:35:53.185Z,18.34
2018-10-05T09:36:53.210Z,18.42
2018-10-05T09:37:53.103Z,18.58
2018-10-05T09:38:53.017Z,18.61
2018-10-05T09:40:13.871Z,18.68
2018-10-05T09:40:52.930Z,18.80
2018-10-05T09:41:52.738Z,18.67
2018-10-05T09:42:52.740Z,18.68
2018-10-05T09:43:52.584Z,18.80
2018-10-05T09:44:52.567Z,19.01
2018-10-05T09:46:13.421Z,19.09
2018-10-05T09:46:52.460Z,19.13
2018-10-05T09:47:52.293Z,19.24
2018-10-05T09:48:52.274Z,19.28
2018-10-05T09:49:52.143Z,19.27
2018-10-05T09:50:52.182Z,19.24
2018-10-05T09:52:13.082Z,19.35
2018-10-05T09:52:51.997Z,19.27
2018-10-05T09:53:51.848Z,18.92
2018-10-05T09:54:51.800Z,18.73
2018-10-05T09:55:51.695Z,18.68
2018-10-05T09:56:51.711Z,18.68
2018-10-05T09:58:12.530Z,18.61
2018-10-05T09:58:51.475Z,18.62
2018-10-05T09:59:51.505Z,18.65
2018-10-05T10:00:51.431Z,18.86
2018-10-05T10:01:51.250Z,18.89
2018-10-05T10:02:51.240Z,18.98
2018-10-05T10:04:12.089Z,18.99
2018-10-05T10:04:51.152Z,18.99
2018-10-05T10:05:50.960Z,19.15
2018-10-05T10:06:50.960Z,19.14
2018-10-05T10:07:50.833Z,19.31
2018-10-05T10:08:50.769Z,19.33
2018-10-05T10:10:11.642Z,19.33
2018-10-05T10:10:50.681Z,19.38
2018-10-05T10:11:50.512Z,19.33
2018-10-05T10:12:50.489Z,19.33
2018-10-05T10:13:50.419Z,19.40
2018-10-05T10:14:50.401Z,19.33
2018-10-05T10:16:11.204Z,19.33
2018-10-05T10:16:50.209Z,19.25
2018-10-05T10:17:50.080Z,19.24
2018-10-05T10:18:50.019Z,19.24
2018-10-05T10:19:49.928Z,19.38
2018-10-05T10:20:49.851Z,19.32
2018-10-05T10:22:10.761Z,19.46
2018-10-05T10:22:49.880Z,19.43
2018-10-05T10:23:49.629Z,19.45
2018-10-05T10:24:49.611Z,19.57
2018-10-05T10:25:49.486Z,19.54
2018-10-05T10:26:49.522Z,19.58
2018-10-05T10:28:10.430Z,19.61
2018-10-05T10:28:49.474Z,19.48
2018-10-05T10:29:49.190Z,19.48
2018-10-05T10:30:49.137Z,19.32
2018-10-05T10:31:49.046Z,19.27
2018-10-05T10:32:49.048Z,19.33
2018-10-05T10:34:09.880Z,19.38
2018-10-05T10:34:49.899Z,19.54
2018-10-05T10:35:48.753Z,19.64
2018-10-05T10:36:48.848Z,19.71
2018-10-05T10:37:48.604Z,19.78
2018-10-05T10:38:48.578Z,20.03
2018-10-05T10:40:09.442Z,19.97
2018-10-05T10:40:48.491Z,19.90
2018-10-05T10:41:48.319Z,19.83
2018-10-05T10:42:48.297Z,19.75
2018-10-05T10:43:48.166Z,19.90
2018-10-05T10:44:48.212Z,19.98
2018-10-05T10:46:09.003Z,19.98
2018-10-05T10:46:48.021Z,20.16
2018-10-05T10:47:47.877Z,20.09
2018-10-05T10:48:47.825Z,19.95
2018-10-05T10:49:47.729Z,20.05
2018-10-05T10:50:47.736Z,20.13
2018-10-05T10:52:08.567Z,20.12
2018-10-05T10:52:47.547Z,20.06
2018-10-05T10:53:47.439Z,20.03
2018-10-05T10:54:47.459Z,20.05
2018-10-05T10:55:47.293Z,19.94
2018-10-05T10:56:47.265Z,19.91
2018-10-05T10:58:08.129Z,19.82
2018-10-05T10:58:47.183Z,19.95
2018-10-05T10:59:47.002Z,19.95
2018-10-05T11:00:47.034Z,20.01
2018-10-05T11:01:46.866Z,20.06
2018-10-05T11:02:46.896Z,20.09
2018-10-05T11:04:07.784Z,20.03
2018-10-05T11:04:46.708Z,20.08
2018-10-05T11:05:46.565Z,20.05
2018-10-05T11:06:46.510Z,20.01
2018-10-05T11:07:46.422Z,20.09
2018-10-05T11:08:46.422Z,20.15
2018-10-05T11:10:07.257Z,20.28
2018-10-05T11:10:46.236Z,20.34
2018-10-05T11:11:46.131Z,20.49
2018-10-05T11:12:46.144Z,20.54
2018-10-05T11:13:45.983Z,20.65
2018-10-05T11:14:45.951Z,20.59
2018-10-05T11:16:06.823Z,20.66
2018-10-05T11:16:45.862Z,20.75
2018-10-05T11:17:45.690Z,20.74
2018-10-05T11:18:45.669Z,20.79
2018-10-05T11:19:45.549Z,20.89
2018-10-05T11:20:45.583Z,21.09
2018-10-05T11:22:06.385Z,20.91
2018-10-05T11:22:45.389Z,20.91
2018-10-05T11:23:45.262Z,20.86
2018-10-05T11:24:45.300Z,20.89
2018-10-05T11:25:45.115Z,20.89
2018-10-05T11:26:45.107Z,20.87
2018-10-05T11:28:05.953Z,20.87
2018-10-05T11:28:44.917Z,20.90
2018-10-05T11:29:44.890Z,20.93
2018-10-05T11:30:44.830Z,21.08
2018-10-05T11:31:44.690Z,21.17
2018-10-05T11:32:44.615Z,21.36
2018-10-05T11:34:05.520Z,21.20
2018-10-05T11:34:44.546Z,21.24
2018-10-05T11:35:44.396Z,21.23
2018-10-05T11:36:44.363Z,21.31
2018-10-05T11:37:44.250Z,21.11
2018-10-05T11:38:44.267Z,21.24
2018-10-05T11:40:05.090Z,21.11
2018-10-05T11:40:44.113Z,21.02
2018-10-05T11:41:43.958Z,21.05
2018-10-05T11:42:43.987Z,21.21
2018-10-05T11:43:43.821Z,21.30
2018-10-05T11:44:43.797Z,21.26
2018-10-05T11:46:04.660Z,21.17
2018-10-05T11:46:43.711Z,21.33
2018-10-05T11:47:43.526Z,21.30
2018-10-05T11:48:43.518Z,21.35
2018-10-05T11:49:43.396Z,21.26
2018-10-05T11:50:43.424Z,21.31
2018-10-05T11:52:04.227Z,21.31
2018-10-05T11:52:43.239Z,21.21
2018-10-05T11:53:43.111Z,21.31
2018-10-05T11:54:43.145Z,21.39
2018-10-05T11:55:42.955Z,21.38
2018-10-05T11:56:42.953Z,21.38
2018-10-05T11:58:03.800Z,21.41
2018-10-05T11:58:42.760Z,21.39
2018-10-05T11:59:42.683Z,21.39
2018-10-05T12:00:42.675Z,21.36
2018-10-05T12:01:42.525Z,21.45
2018-10-05T12:02:42.480Z,21.51
2018-10-05T12:04:03.362Z,21.36
2018-10-05T12:04:42.392Z,21.45
2018-10-05T12:05:42.240Z,21.54
2018-10-05T12:06:42.200Z,21.54
2018-10-05T12:07:42.094Z,21.61
2018-10-05T12:08:42.116Z,21.72
2018-10-05T12:10:02.935Z,21.85
2018-10-05T12:10:41.923Z,22.02
2018-10-05T12:11:41.810Z,22.01
2018-10-05T12:12:41.832Z,22.07
2018-10-05T12:13:41.694Z,22.02
2018-10-05T12:14:41.642Z,22.05
2018-10-05T12:16:02.506Z,22.02
2018-10-05T12:16:41.554Z,22.01
2018-10-05T12:17:41.379Z,22.08
2018-10-05T12:18:41.365Z,21.89
2018-10-05T12:19:41.238Z,22.07
2018-10-05T12:20:41.281Z,22.04
2018-10-05T12:22:02.079Z,22.00
2018-10-05T12:22:41.080Z,22.01
2018-10-05T12:23:40.957Z,22.02
2018-10-05T12:24:40.992Z,22.04
2018-10-05T12:25:40.803Z,22.01
2018-10-05T12:26:40.849Z,22.01
2018-10-05T12:28:01.678Z,22.00
2018-10-05T12:28:40.709Z,22.05
2018-10-05T12:29:40.525Z,21.97
2018-10-05T12:30:40.523Z,22.01
2018-10-05T12:31:40.389Z,22.04
2018-10-05T12:32:40.333Z,22.16
2018-10-05T12:34:01.220Z,22.16
2018-10-05T12:34:40.243Z,22.05
2018-10-05T12:35:40.103Z,22.10
2018-10-05T12:36:40.046Z,22.12
2018-10-05T12:37:39.949Z,22.26
2018-10-05T12:38:39.958Z,22.39
2018-10-05T12:40:00.801Z,22.50
2018-10-05T12:40:39.766Z,22.44
2018-10-05T12:41:39.667Z,22.59
2018-10-05T12:42:39.684Z,22.47
2018-10-05T12:43:39.526Z,22.50
2018-10-05T12:44:39.485Z,22.37
2018-10-05T12:46:00.367Z,22.41
2018-10-05T12:46:39.395Z,22.42
2018-10-05T12:47:39.242Z,22.46
2018-10-05T12:48:39.206Z,22.52
2018-10-05T12:49:39.099Z,22.41
2018-10-05T12:50:39.120Z,22.39
2018-10-05T12:51:59.954Z,22.44
2018-10-05T12:52:38.926Z,22.56
2018-10-05T12:53:38.812Z,22.54
2018-10-05T12:54:38.838Z,22.65
2018-10-05T12:55:38.677Z,22.62
2018-10-05T12:56:38.642Z,22.47
2018-10-05T12:57:59.558Z,22.54
2018-10-05T12:58:38.555Z,22.46
2018-10-05T12:59:38.387Z,22.44
2018-10-05T13:00:38.364Z,22.56
2018-10-05T13:01:38.249Z,22.54
2018-10-05T13:02:38.276Z,22.68
2018-10-05T13:03:59.088Z,22.71
2018-10-05T13:04:38.083Z,22.79
2018-10-05T13:05:37.964Z,22.87
2018-10-05T13:06:37.999Z,22.93